Time;durP1;ratioP1;P1;durP2;ratioP2;P2;SDS_P1;SDS_P2;PMS_P1;PMS_P2;Temp;Humidity;BMP_temperature;BMP_pressure;BME280_temperature;BME280_humidity;BME280_pressure;Samples;Min_cycle;Max_cycle;Signal;HPM_P1;HPM_P2
2022/07/06 00:00:30;;;;;;;13.10;10.75;;;;;;;16.74;80.89;98629.13;5089506;28;20036;-79
2022/07/06 00:02:56;;;;;;;11.93;10.48;;;;;;;16.75;81.21;98646.56;5090283;28;20039;-78
2022/07/06 00:05:21;;;;;;;15.15;11.90;;;;;;;16.75;81.31;98630.75;5090620;28;20077;-79
2022/07/06 00:07:47;;;;;;;14.82;10.77;;;;;;;16.75;81.15;98633.50;5090316;28;20047;-79
2022/07/06 00:10:12;;;;;;;14.90;11.27;;;;;;;16.76;81.09;98637.13;5090231;28;20111;-79
2022/07/06 00:12:37;;;;;;;11.75;10.50;;;;;;;16.75;81.24;98644.59;5090296;28;20031;-78
2022/07/06 00:15:03;;;;;;;14.32;11.68;;;;;;;16.74;80.89;98642.97;5090371;28;20376;-79
2022/07/06 00:17:29;;;;;;;11.85;10.50;;;;;;;16.74;81.02;98642.16;5090201;28;20040;-79
2022/07/06 00:19:54;;;;;;;13.07;10.95;;;;;;;16.73;81.54;98646.88;5090175;28;20099;-78
2022/07/06 00:22:19;;;;;;;16.08;11.68;;;;;;;16.72;80.97;98656.34;5090315;28;20047;-78
2022/07/06 00:24:45;;;;;;;13.90;11.18;;;;;;;16.72;81.06;98653.56;5090085;28;20392;-78
2022/07/06 00:27:10;;;;;;;13.85;11.57;;;;;;;16.71;81.47;98651.16;5089656;28;20028;-76
2022/07/06 00:29:36;;;;;;;12.27;11.00;;;;;;;16.68;81.19;98644.31;5090051;28;20032;-77
2022/07/06 00:32:01;;;;;;;16.13;12.00;;;;;;;16.65;81.13;98645.78;5090051;28;20020;-77
2022/07/06 00:34:27;;;;;;;15.93;11.23;;;;;;;16.65;81.47;98648.56;5090532;28;20435;-78
2022/07/06 00:36:52;;;;;;;15.07;11.60;;;;;;;16.67;81.75;98649.03;5089243;28;20028;-80
2022/07/06 00:39:19;;;;;;;15.38;12.15;;;;;;;16.67;81.32;98645.47;5091017;28;20016;-78
2022/07/06 00:41:44;;;;;;;15.25;11.60;;;;;;;16.68;81.58;98649.88;5072078;28;20407;-78
2022/07/06 00:44:10;;;;;;;13.40;11.77;;;;;;;16.66;81.41;98647.41;5090086;28;20024;-75
2022/07/06 00:46:35;;;;;;;14.30;12.05;;;;;;;16.67;81.43;98643.50;5089568;28;20376;-77
2022/07/06 00:49:01;;;;;;;12.90;11.25;;;;;;;16.67;81.54;98648.25;5089407;28;20074;-77
2022/07/06 00:51:32;;;;;;;14.15;12.55;;;;;;;16.69;81.18;98645.94;5087682;28;20027;-74
2022/07/06 00:54:03;;;;;;;14.57;11.65;;;;;;;16.70;81.23;98642.03;5089483;28;20480;-76
2022/07/06 00:56:33;;;;;;;17.48;11.90;;;;;;;16.71;81.62;98642.84;5088009;28;20023;-75
2022/07/06 00:59:02;;;;;;;14.05;10.50;;;;;;;16.71;81.23;98640.06;5089503;28;20502;-74
2022/07/06 01:01:28;;;;;;;13.38;11.15;;;;;;;16.72;81.26;98647.22;5088959;28;20020;-76
2022/07/06 01:03:54;;;;;;;17.02;12.35;;;;;;;16.74;81.01;98633.88;5089597;28;20495;-77
2022/07/06 01:06:19;;;;;;;12.77;11.48;;;;;;;16.72;81.23;98636.94;5089880;28;20035;-75
2022/07/06 01:08:46;;;;;;;12.40;11.02;;;;;;;16.70;81.09;98635.66;5090271;28;20032;-75
2022/07/06 01:11:12;;;;;;;14.13;11.55;;;;;;;16.65;81.13;98633.91;5089819;28;20095;-76
2022/07/06 01:13:38;;;;;;;13.35;10.65;;;;;;;16.61;81.02;98628.22;5089210;28;20040;-77
2022/07/06 01:16:03;;;;;;;11.95;10.70;;;;;;;16.56;81.18;98624.81;5089097;28;20015;-77
2022/07/06 01:18:29;;;;;;;13.57;11.32;;;;;;;16.50;81.23;98622.22;5089003;28;20123;-76
2022/07/06 01:21:06;;;;;;;12.48;11.18;;;;;;;16.44;80.52;98615.25;5088724;28;20028;-75
2022/07/06 01:23:32;;;;;;;13.30;10.05;;;;;;;16.41;80.87;98624.22;5089609;28;20051;-75
2022/07/06 01:25:57;;;;;;;12.38;10.45;;;;;;;16.38;80.80;98616.56;5089096;28;20020;-75
2022/07/06 01:28:23;;;;;;;14.20;10.73;;;;;;;16.34;80.48;98616.44;5089758;28;20032;-75
2022/07/06 01:30:49;;;;;;;15.52;10.10;;;;;;;16.34;80.93;98618.38;5071322;28;20024;-76
2022/07/06 01:33:14;;;;;;;12.30;10.48;;;;;;;16.32;80.67;98618.72;5088876;28;20028;-78
2022/07/06 01:35:40;;;;;;;14.02;11.27;;;;;;;16.30;80.64;98621.00;5070996;28;20460;-76
2022/07/06 01:38:05;;;;;;;13.30;10.88;;;;;;;16.33;80.61;98611.22;5089342;28;20030;-77
2022/07/06 01:40:31;;;;;;;14.50;10.30;;;;;;;16.37;80.55;98623.25;5089119;28;20107;-78
2022/07/06 01:42:56;;;;;;;14.10;11.15;;;;;;;16.37;80.88;98609.41;5088873;28;20511;-77
2022/07/06 01:45:21;;;;;;;13.00;10.38;;;;;;;16.36;81.07;98619.69;5089622;28;20061;-77
2022/07/06 01:47:47;;;;;;;13.27;10.77;;;;;;;16.36;80.68;98616.91;5089493;28;20024;-77
2022/07/06 01:50:12;;;;;;;14.52;11.45;;;;;;;16.35;80.77;98615.28;5089702;28;20047;-77
2022/07/06 01:52:38;;;;;;;14.73;11.68;;;;;;;16.35;80.86;98620.81;5089584;28;20043;-78
2022/07/06 01:55:04;;;;;;;13.30;11.90;;;;;;;16.31;81.05;98622.63;5089504;28;20036;-77
2022/07/06 01:57:29;;;;;;;14.90;12.68;;;;;;;16.27;80.61;98616.13;5089235;28;20036;-77
2022/07/06 01:59:54;;;;;;;15.15;11.70;;;;;;;16.24;80.85;98616.00;5089879;28;20539;-78
2022/07/06 02:02:20;;;;;;;16.73;12.07;;;;;;;16.25;80.83;98612.88;5090094;28;20383;-76
2022/07/06 02:04:45;;;;;;;17.33;12.02;;;;;;;16.20;80.41;98633.25;5093242;28;20020;-77
2022/07/06 02:07:11;;;;;;;15.45;12.25;;;;;;;16.15;80.93;98629.81;5093077;28;20144;-76
2022/07/06 02:09:36;;;;;;;14.45;12.05;;;;;;;16.14;81.03;98622.66;5093476;28;20533;-77
2022/07/06 02:12:02;;;;;;;13.00;11.05;;;;;;;16.12;81.19;98623.00;5092673;28;20024;-78
2022/07/06 02:14:28;;;;;;;14.05;11.27;;;;;;;16.14;80.88;98630.97;5093681;28;20031;-77
2022/07/06 02:16:53;;;;;;;13.25;11.85;;;;;;;16.14;81.30;98630.97;5092540;28;20044;-76
2022/07/06 02:19:19;;;;;;;14.32;11.70;;;;;;;16.10;80.52;98636.34;5093154;28;20016;-78
2022/07/06 02:21:44;;;;;;;13.38;11.65;;;;;;;16.12;81.21;98633.25;5074305;28;20078;-76
2022/07/06 02:24:09;;;;;;;16.83;12.40;;;;;;;16.11;80.57;98631.63;5092668;28;20024;-77
2022/07/06 02:26:35;;;;;;;14.88;12.45;;;;;;;16.08;80.84;98624.81;5092551;28;20020;-76
2022/07/06 02:29:00;;;;;;;13.32;11.90;;;;;;;16.11;80.93;98626.91;5092431;28;20028;-76
2022/07/06 02:31:26;;;;;;;15.48;11.55;;;;;;;16.14;80.98;98626.25;5092488;28;20381;-76
2022/07/06 02:33:51;;;;;;;14.68;11.82;;;;;;;16.13;80.67;98626.56;5092489;28;20415;-75
2022/07/06 02:36:16;;;;;;;15.80;12.60;;;;;;;16.12;81.00;98619.41;5092530;28;20704;-77
2022/07/06 02:38:42;;;;;;;15.50;12.07;;;;;;;16.11;80.63;98620.56;5088986;28;20469;-77
2022/07/06 02:41:07;;;;;;;14.43;12.80;;;;;;;16.09;80.85;98625.63;5090985;28;20503;-77
2022/07/06 02:43:33;;;;;;;15.82;12.35;;;;;;;16.11;80.87;98634.38;5091543;28;20113;-77
2022/07/06 02:45:58;;;;;;;15.75;11.65;;;;;;;16.14;80.86;98639.25;5092263;28;20415;-77
2022/07/06 02:48:24;;;;;;;14.02;11.80;;;;;;;16.11;80.29;98631.63;5092268;28;20686;-76
2022/07/06 02:50:49;;;;;;;16.60;12.55;;;;;;;16.10;80.54;98630.03;5092130;28;20028;-76
2022/07/06 02:53:17;;;;;;;17.92;12.52;;;;;;;16.09;80.23;98643.03;5092097;28;20035;-77
2022/07/06 02:55:42;;;;;;;14.95;12.23;;;;;;;16.08;80.44;98646.94;5092249;28;20091;-77
2022/07/06 02:58:07;;;;;;;16.45;12.32;;;;;;;16.06;80.29;98647.28;5073749;28;20166;-77
2022/07/06 03:00:33;;;;;;;15.40;11.73;;;;;;;16.08;80.91;98652.47;5091820;28;20020;-76
2022/07/06 03:02:58;;;;;;;15.73;12.55;;;;;;;16.06;80.18;98660.28;5091440;28;20028;-77
2022/07/06 03:05:24;;;;;;;17.13;13.50;;;;;;;16.03;80.54;98666.47;5091883;28;20024;-77
2022/07/06 03:07:49;;;;;;;14.73;12.20;;;;;;;15.99;80.50;98669.09;5091182;28;20028;-76
2022/07/06 03:10:14;;;;;;;17.33;13.40;;;;;;;15.95;80.60;98673.66;5091908;28;20032;-77
2022/07/06 03:12:40;;;;;;;15.50;12.60;;;;;;;15.92;80.57;98674.31;5091481;28;20055;-77
2022/07/06 03:15:06;;;;;;;16.23;13.85;;;;;;;15.88;80.36;98671.38;5090450;28;20114;-77
2022/07/06 03:17:31;;;;;;;16.48;12.32;;;;;;;15.88;80.38;98670.56;5091494;28;20039;-77
2022/07/06 03:19:57;;;;;;;25.45;13.68;;;;;;;15.87;80.23;98663.41;5091621;28;20379;-77
2022/07/06 03:22:23;;;;;;;15.80;12.88;;;;;;;15.86;80.94;98664.50;5091234;28;20451;-77
2022/07/06 03:24:49;;;;;;;15.88;11.93;;;;;;;15.81;80.71;98659.13;5090667;28;20031;-75
2022/07/06 03:27:15;;;;;;;16.63;12.60;;;;;;;15.80;80.49;98661.09;5091014;28;20360;-77
2022/07/06 03:29:40;;;;;;;14.95;12.23;;;;;;;15.81;80.76;98659.97;5091240;28;20089;-76
2022/07/06 03:32:06;;;;;;;12.77;10.30;;;;;;;15.85;80.86;98669.25;5091149;28;20036;-77
2022/07/06 03:34:31;;;;;;;17.63;13.60;;;;;;;15.82;80.91;98669.88;5091211;28;20024;-76
2022/07/06 03:36:57;;;;;;;16.52;12.93;;;;;;;15.83;80.64;98677.06;5091253;28;20051;-76
2022/07/06 03:39:22;;;;;;;17.17;12.32;;;;;;;15.83;81.32;98679.81;5091306;28;20089;-77
2022/07/06 03:41:47;;;;;;;16.35;12.18;;;;;;;15.81;81.16;98681.25;5091159;28;20024;-75
2022/07/06 03:44:13;;;;;;;15.73;12.13;;;;;;;15.81;81.27;98675.72;5072801;28;20430;-76
2022/07/06 03:46:38;;;;;;;15.75;12.27;;;;;;;15.83;80.97;98681.75;5091030;28;20025;-76
2022/07/06 03:49:04;;;;;;;16.40;12.70;;;;;;;15.89;80.79;98688.78;5090891;28;20438;-76
2022/07/06 03:51:29;;;;;;;15.23;11.93;;;;;;;15.95;81.29;98681.13;5090776;28;20020;-76
2022/07/06 03:53:55;;;;;;;15.70;12.38;;;;;;;15.95;81.36;98681.94;5090466;28;20024;-77
2022/07/06 03:56:29;;;;;;;14.07;11.25;;;;;;;15.92;80.97;98691.69;5072903;28;20051;-77
2022/07/06 03:58:59;;;;;;;16.08;11.38;;;;;;;15.96;80.90;98686.34;5090598;28;20031;-77
2022/07/06 04:01:25;;;;;;;14.13;10.88;;;;;;;15.99;80.62;98693.16;5090328;28;20032;-76
2022/07/06 04:03:51;;;;;;;12.32;10.75;;;;;;;16.03;80.69;98688.59;5072239;28;20031;-76
2022/07/06 04:06:17;;;;;;;11.60;9.75;;;;;;;16.05;80.76;98691.84;5090820;28;20031;-76
2022/07/06 04:08:43;;;;;;;13.93;11.75;;;;;;;16.06;80.37;98688.78;5091318;28;20153;-77
2022/07/06 04:11:09;;;;;;;15.20;11.57;;;;;;;16.05;80.92;98691.84;5091466;28;20110;-76
2022/07/06 04:13:34;;;;;;;15.60;11.10;;;;;;;15.98;80.43;98697.91;5091580;28;20032;-75
2022/07/06 04:16:00;;;;;;;12.55;10.38;;;;;;;15.92;80.56;98685.38;5091134;28;20070;-76
2022/07/06 04:18:25;;;;;;;14.35;10.40;;;;;;;15.92;80.08;98699.19;5091538;28;20055;-75
2022/07/06 04:20:51;;;;;;;11.88;10.15;;;;;;;15.92;80.20;98696.44;5090318;28;20039;-76
2022/07/06 04:23:17;;;;;;;12.15;9.65;;;;;;;15.96;80.30;98693.81;5090009;28;20028;-77
2022/07/06 04:25:42;;;;;;;14.05;10.75;;;;;;;15.94;80.43;98699.69;5089984;28;20084;-76
2022/07/06 04:28:08;;;;;;;12.23;9.93;;;;;;;15.98;80.14;98702.59;5091117;28;20484;-77
2022/07/06 04:30:34;;;;;;;11.02;9.85;;;;;;;15.99;80.06;98702.28;5090363;28;20032;-76
2022/07/06 04:32:59;;;;;;;10.82;9.70;;;;;;;15.99;79.98;98710.59;5090123;28;20039;-75
2022/07/06 04:35:25;;;;;;;13.57;10.98;;;;;;;16.00;79.82;98697.56;5090171;28;20027;-76
2022/07/06 04:37:50;;;;;;;14.15;11.05;;;;;;;16.06;79.80;98701.78;5090336;28;20024;-76
2022/07/06 04:40:17;;;;;;;12.90;10.15;;;;;;;16.12;79.80;98692.19;5090277;28;20422;-76
2022/07/06 04:42:43;;;;;;;13.55;10.65;;;;;;;16.15;79.79;98697.06;5090326;28;20036;-76
2022/07/06 04:45:09;;;;;;;11.48;9.73;;;;;;;16.19;79.77;98692.50;5089947;28;20035;-75
2022/07/06 04:47:35;;;;;;;11.75;10.55;;;;;;;16.26;79.32;98689.22;5090162;28;20100;-76
2022/07/06 04:50:01;;;;;;;12.30;10.98;;;;;;;16.35;79.80;98690.03;5090170;28;20483;-75
2022/07/06 04:52:27;;;;;;;13.15;11.35;;;;;;;16.47;79.61;98683.81;5090017;28;20059;-77
2022/07/06 04:54:54;;;;;;;13.02;11.20;;;;;;;16.59;79.51;98691.41;5089700;28;20495;-75
2022/07/06 04:57:19;;;;;;;13.88;11.90;;;;;;;16.66;79.39;98696.47;5089911;28;20028;-77
2022/07/06 04:59:45;;;;;;;13.05;11.65;;;;;;;16.76;79.56;98695.28;5089804;28;20031;-77
2022/07/06 05:02:10;;;;;;;13.52;11.32;;;;;;;16.85;79.34;98693.28;5089719;28;20024;-77
2022/07/06 05:04:36;;;;;;;16.02;11.93;;;;;;;16.93;79.15;98697.16;5089933;28;20388;-76
2022/07/06 05:07:01;;;;;;;14.77;12.07;;;;;;;16.96;79.39;98697.31;5090004;28;20372;-77
2022/07/06 05:09:26;;;;;;;14.90;10.90;;;;;;;17.01;79.11;98698.28;5089821;28;20028;-77
2022/07/06 05:11:52;;;;;;;12.85;11.35;;;;;;;16.98;78.96;98698.94;5091067;28;20028;-76
2022/07/06 05:14:17;;;;;;;14.35;11.30;;;;;;;16.93;78.48;98702.69;5090628;28;20465;-76
2022/07/06 05:16:43;;;;;;;12.80;10.55;;;;;;;16.92;78.45;98695.53;5090560;28;20055;-75
2022/07/06 05:19:08;;;;;;;12.63;11.20;;;;;;;16.94;78.55;98705.13;5072738;28;20029;-76
2022/07/06 05:21:33;;;;;;;12.73;10.60;;;;;;;17.02;78.64;98702.69;5090637;28;20028;-78
2022/07/06 05:23:59;;;;;;;16.20;13.48;;;;;;;17.06;78.28;98707.25;5090647;28;20085;-77
2022/07/06 05:26:24;;;;;;;14.98;12.23;;;;;;;17.13;78.34;98712.25;5072137;28;20100;-77
2022/07/06 05:28:50;;;;;;;15.50;12.40;;;;;;;17.21;78.49;98722.47;5090754;28;20072;-76
2022/07/06 05:31:15;;;;;;;17.00;12.93;;;;;;;17.26;78.39;98725.06;5090235;28;20025;-77
2022/07/06 05:33:41;;;;;;;13.57;11.90;;;;;;;17.36;78.46;98731.34;5090277;28;20028;-76
2022/07/06 05:36:07;;;;;;;13.43;11.07;;;;;;;17.41;78.27;98726.44;5090175;28;20479;-75
2022/07/06 05:38:33;;;;;;;15.57;12.20;;;;;;;17.52;78.12;98731.59;5093517;28;20111;-76
2022/07/06 05:40:58;;;;;;;13.75;11.75;;;;;;;17.61;78.09;98728.78;5094444;28;20032;-76
2022/07/06 05:43:24;;;;;;;13.30;11.90;;;;;;;17.63;77.48;98734.78;5094650;28;20039;-75
2022/07/06 05:45:49;;;;;;;15.55;12.82;;;;;;;17.62;77.74;98739.50;5076250;28;20035;-76
2022/07/06 05:50:59;;;;;;;14.25;11.93;;;;;;;17.68;77.46;98746.50;5094538;28;20043;-77
2022/07/06 05:53:25;;;;;;;14.05;12.55;;;;;;;17.72;77.42;98749.41;5094505;28;20020;-77
2022/07/06 05:55:50;;;;;;;15.20;13.23;;;;;;;17.69;77.02;98759.22;5093645;28;20032;-77
2022/07/06 05:58:16;;;;;;;18.30;13.50;;;;;;;17.77;77.33;98773.34;5093871;28;20020;-76
2022/07/06 06:00:41;;;;;;;17.60;13.25;;;;;;;17.84;76.98;98802.19;5093973;28;20056;-76
2022/07/06 06:03:07;;;;;;;19.77;15.23;;;;;;;17.71;77.08;98792.97;5093818;28;20117;-75
2022/07/06 06:05:32;;;;;;;20.90;15.43;;;;;;;17.61;76.86;98795.31;5093749;28;20024;-75
2022/07/06 06:07:58;;;;;;;22.10;15.57;;;;;;;17.62;77.00;98794.19;5094183;28;20024;-75
2022/07/06 06:10:24;;;;;;;25.55;18.05;;;;;;;17.68;77.12;98801.16;5094167;28;20028;-76
2022/07/06 06:12:49;;;;;;;26.08;19.30;;;;;;;17.70;77.14;98788.56;5093604;28;20112;-76
2022/07/06 06:15:15;;;;;;;28.70;20.65;;;;;;;17.69;76.61;98788.91;5093737;28;20032;-75
2022/07/06 06:17:41;;;;;;;27.08;20.52;;;;;;;17.68;76.71;98795.63;5093409;28;20082;-75
2022/07/06 06:20:09;;;;;;;26.15;19.13;;;;;;;17.72;76.86;98802.13;5094051;28;20397;-76
2022/07/06 06:22:51;;;;;;;22.60;15.35;;;;;;;17.71;76.65;98803.28;5093430;28;20089;-75
2022/07/06 06:25:18;;;;;;;22.33;14.68;;;;;;;17.66;76.49;98804.25;5093562;28;20027;-74
2022/07/06 06:27:44;;;;;;;13.13;9.82;;;;;;;17.62;75.92;98796.94;5093029;28;20032;-74
2022/07/06 06:30:12;;;;;;;12.38;8.30;;;;;;;17.51;74.72;98802.06;5093150;28;20020;-75
2022/07/06 06:32:38;;;;;;;11.15;6.88;;;;;;;17.40;74.58;98805.22;5092904;28;20028;-75
2022/07/06 06:35:05;;;;;;;10.27;7.47;;;;;;;17.35;74.07;98807.34;5093250;28;20560;-76
2022/07/06 06:37:30;;;;;;;9.02;6.13;;;;;;;17.31;74.65;98801.66;5093084;28;20028;-76
2022/07/06 06:39:56;;;;;;;8.52;5.93;;;;;;;17.32;73.81;98810.81;5093044;28;20404;-75
2022/07/06 06:42:22;;;;;;;8.63;5.65;;;;;;;17.30;74.22;98813.91;5092991;28;20028;-75
2022/07/06 06:44:47;;;;;;;8.45;7.10;;;;;;;17.37;74.40;98813.38;5093033;28;20032;-75
2022/07/06 06:47:13;;;;;;;12.25;8.10;;;;;;;17.42;74.55;98804.88;5092753;28;20034;-74
2022/07/06 06:49:38;;;;;;;11.82;6.00;;;;;;;17.51;73.94;98816.75;5093135;28;20039;-74
2022/07/06 06:52:04;;;;;;;8.77;5.03;;;;;;;17.53;74.03;98824.72;5092726;28;20361;-76
2022/07/06 06:54:29;;;;;;;10.43;5.35;;;;;;;17.55;73.94;98816.88;5074322;28;20028;-74
2022/07/06 06:56:55;;;;;;;11.35;5.60;;;;;;;17.57;73.76;98806.25;5092249;28;20066;-75
2022/07/06 06:59:20;;;;;;;10.05;5.50;;;;;;;17.62;73.78;98806.06;5092768;28;20024;-76
2022/07/06 07:01:46;;;;;;;6.43;4.70;;;;;;;17.63;73.32;98809.69;5074501;28;20032;-74
2022/07/06 07:04:11;;;;;;;5.95;4.68;;;;;;;17.56;72.70;98811.00;5088835;28;20437;-73
2022/07/06 07:06:37;;;;;;;6.88;4.63;;;;;;;17.48;72.47;98813.84;5092123;28;20031;-74
2022/07/06 07:09:02;;;;;;;6.75;4.40;;;;;;;17.49;72.59;98807.13;5092555;28;20028;-74
2022/07/06 07:11:28;;;;;;;5.10;4.32;;;;;;;17.52;72.55;98812.81;5092247;28;20519;-74
2022/07/06 07:13:53;;;;;;;7.18;4.40;;;;;;;17.58;72.63;98810.66;5074321;28;20076;-74
2022/07/06 07:16:19;;;;;;;8.35;4.60;;;;;;;17.73;72.63;98805.69;5092305;28;20035;-76
2022/07/06 07:18:45;;;;;;;5.93;4.13;;;;;;;17.95;72.03;98812.91;5085252;28;20032;-74
2022/07/06 07:21:10;;;;;;;6.07;4.10;;;;;;;18.15;72.18;98806.56;5067151;28;20043;-73
2022/07/06 07:23:36;;;;;;;4.55;3.90;;;;;;;18.36;71.80;98802.97;5069897;28;20531;-76
2022/07/06 07:26:01;;;;;;;5.65;3.92;;;;;;;18.39;71.64;98805.06;5091912;28;20058;-75
2022/07/06 07:28:26;;;;;;;5.38;3.70;;;;;;;18.45;70.90;98814.81;5091635;28;20097;-75
2022/07/06 07:30:52;;;;;;;5.35;3.60;;;;;;;18.52;70.80;98813.47;5091877;28;20082;-76
2022/07/06 07:33:17;;;;;;;4.85;3.25;;;;;;;18.50;69.57;98815.78;5091873;28;20111;-75
2022/07/06 07:35:43;;;;;;;6.90;3.25;;;;;;;18.38;69.54;98814.56;5087961;28;20376;-76
2022/07/06 07:38:08;;;;;;;3.65;2.78;;;;;;;18.35;70.16;98809.69;5067763;28;20073;-72
2022/07/06 07:40:35;;;;;;;9.48;3.60;;;;;;;18.39;70.34;98807.84;5088728;28;20485;-74
2022/07/06 07:43:01;;;;;;;4.22;2.58;;;;;;;18.51;70.72;98817.41;5089727;28;20028;-78
2022/07/06 07:45:26;;;;;;;5.00;2.72;;;;;;;18.51;70.38;98815.41;5090419;28;20076;-74
2022/07/06 07:47:52;;;;;;;5.13;3.22;;;;;;;18.45;69.45;98812.03;5090617;28;20036;-76
2022/07/06 07:50:18;;;;;;;3.83;2.50;;;;;;;18.39;69.04;98810.63;5087210;28;20032;-73
2022/07/06 07:52:43;;;;;;;4.57;2.97;;;;;;;18.34;69.80;98810.84;5089428;28;20032;-71
2022/07/06 07:55:09;;;;;;;3.05;2.55;;;;;;;18.35;69.58;98825.50;5089744;28;20116;-75
2022/07/06 07:57:35;;;;;;;3.08;2.67;;;;;;;18.31;68.83;98819.84;5088341;28;20085;-73
2022/07/06 08:00:01;;;;;;;4.65;2.90;;;;;;;18.21;69.08;98823.84;5089516;28;20020;-72
2022/07/06 08:02:26;;;;;;;3.65;2.78;;;;;;;18.17;69.04;98822.06;5088977;28;20035;-73
2022/07/06 08:04:52;;;;;;;4.53;3.00;;;;;;;18.15;69.23;98823.22;5087116;28;20032;-72
2022/07/06 08:07:17;;;;;;;5.10;2.63;;;;;;;18.18;69.26;98827.28;5089328;28;20107;-74
2022/07/06 08:09:43;;;;;;;3.75;3.17;;;;;;;18.23;69.58;98829.03;5089250;28;20035;-73
2022/07/06 08:12:09;;;;;;;4.07;2.35;;;;;;;18.25;69.28;98830.34;5084761;28;20040;-75
2022/07/06 08:14:34;;;;;;;3.55;2.78;;;;;;;18.37;69.18;98818.50;5089152;28;20027;-74
2022/07/06 08:17:00;;;;;;;3.60;2.20;;;;;;;18.49;68.61;98822.47;5070727;28;20464;-75
2022/07/06 08:19:25;;;;;;;2.88;2.10;;;;;;;18.56;68.31;98819.94;5088699;28;20040;-71
2022/07/06 08:21:51;;;;;;;3.30;2.08;;;;;;;18.63;68.45;98820.19;5088326;28;20126;-70
2022/07/06 08:24:17;;;;;;;2.55;2.30;;;;;;;18.71;68.47;98818.50;5088414;28;20066;-73
2022/07/06 08:26:43;;;;;;;3.53;2.20;;;;;;;18.78;67.90;98818.75;5089038;28;20084;-74
2022/07/06 08:29:08;;;;;;;2.60;2.28;;;;;;;18.78;68.21;98813.19;5088275;28;20480;-72
2022/07/06 08:31:34;;;;;;;3.08;2.50;;;;;;;18.77;68.04;98811.56;5089093;28;20489;-73
2022/07/06 08:34:00;;;;;;;4.78;2.50;;;;;;;18.73;68.08;98808.66;5087860;28;20019;-74
2022/07/06 08:36:26;;;;;;;2.95;2.28;;;;;;;18.71;68.16;98808.19;5088497;28;20020;-75
2022/07/06 08:38:52;;;;;;;4.80;3.33;;;;;;;18.75;67.80;98811.91;5085253;28;20396;-76
2022/07/06 08:41:20;;;;;;;2.35;2.15;;;;;;;18.75;67.99;98811.91;5082437;28;20071;-73
2022/07/06 08:43:46;;;;;;;2.43;2.07;;;;;;;18.71;67.44;98816.53;5088190;28;20535;-75
2022/07/06 08:46:13;;;;;;;1.98;1.88;;;;;;;18.69;66.98;98812.50;5088968;28;20278;-76
2022/07/06 08:48:40;;;;;;;3.13;1.80;;;;;;;18.67;67.72;98804.47;5088499;28;20476;-75
2022/07/06 08:51:06;;;;;;;2.20;2.00;;;;;;;18.81;67.97;98809.72;5079674;28;20038;-74
2022/07/06 08:53:32;;;;;;;2.88;1.73;;;;;;;18.86;67.37;98809.50;5088265;28;20036;-72
2022/07/06 08:55:58;;;;;;;5.28;2.55;;;;;;;18.89;67.64;98819.94;5088905;28;20049;-73
2022/07/06 08:58:25;;;;;;;4.80;2.03;;;;;;;18.92;66.71;98817.63;5088315;28;20384;-73
2022/07/06 09:00:50;;;;;;;2.45;2.25;;;;;;;18.99;67.30;98818.72;5085375;28;20136;-74
2022/07/06 09:03:16;;;;;;;4.05;2.00;;;;;;;19.11;65.96;98814.34;5087137;28;20547;-73
2022/07/06 09:05:46;;;;;;;3.63;2.22;;;;;;;19.13;66.13;98812.03;5087508;28;20035;-73
2022/07/06 09:08:11;;;;;;;;;;;;;;;19.22;65.87;98812.75;5087305;28;20036;-74
2022/07/06 09:10:37;;;;;;;3.40;2.30;;;;;;;19.31;65.93;98807.06;5086771;28;19924;-75
2022/07/06 09:13:07;;;;;;;3.80;2.35;;;;;;;19.47;65.98;98813.59;5088364;28;20028;-75
2022/07/06 09:15:35;;;;;;;2.92;2.40;;;;;;;19.59;66.22;98809.97;5090905;28;20065;-74
2022/07/06 09:18:03;;;;;;;2.22;2.00;;;;;;;19.62;66.09;98819.59;5092140;28;20040;-74
2022/07/06 09:20:29;;;;;;;2.20;1.95;;;;;;;19.55;65.65;98820.19;5092399;28;20515;-75
2022/07/06 09:23:02;;;;;;;2.90;1.98;;;;;;;19.37;64.42;98808.47;5090713;28;20391;-76
2022/07/06 09:25:28;;;;;;;2.45;1.80;;;;;;;19.16;64.05;98808.56;5092266;28;20055;-76
2022/07/06 09:27:56;;;;;;;1.67;1.58;;;;;;;18.97;64.70;98800.78;5090718;28;20480;-73
2022/07/06 09:30:22;;;;;;;5.00;1.60;;;;;;;18.91;65.29;98797.38;5092366;28;20024;-74
2022/07/06 09:32:50;;;;;;;2.03;1.88;;;;;;;18.92;65.54;98795.41;5092329;28;20356;-73
2022/07/06 09:35:49;;;;;;;3.45;2.30;;;;;;;18.93;65.89;98792.28;5091801;28;20028;-72
2022/07/06 09:38:15;;;;;;;2.22;2.08;;;;;;;18.99;66.22;98801.25;5070741;28;20448;-69
2022/07/06 09:40:42;;;;;;;3.92;1.95;;;;;;;19.00;66.04;98803.66;5092405;28;20032;-77
2022/07/06 09:43:08;;;;;;;2.72;1.85;;;;;;;19.02;66.10;98795.78;5092620;28;20020;-73
2022/07/06 09:45:36;;;;;;;3.00;1.90;;;;;;;19.00;66.35;98798.09;5074161;28;20039;-72
2022/07/06 09:48:14;;;;;;;4.45;2.03;;;;;;;19.00;66.36;98789.78;5091180;28;20035;-70
2022/07/06 09:50:44;;;;;;;1.75;1.65;;;;;;;19.06;66.34;98792.31;5092247;28;20024;-72
2022/07/06 09:53:12;;;;;;;3.92;1.65;;;;;;;19.16;66.33;98792.69;5092431;28;20055;-74
2022/07/06 09:55:37;;;;;;;2.00;1.73;;;;;;;19.31;66.13;98795.94;5090723;28;20039;-73
2022/07/06 09:58:03;;;;;;;2.33;1.73;;;;;;;19.41;66.69;98795.50;5069815;28;20028;-74
2022/07/06 10:00:29;;;;;;;2.47;1.60;;;;;;;19.51;66.16;98797.00;5072448;28;20032;-73
2022/07/06 10:02:54;;;;;;;2.80;1.60;;;;;;;19.68;65.54;98793.16;5091484;28;20105;-74
2022/07/06 10:05:26;;;;;;;2.80;2.17;;;;;;;19.87;65.82;98784.22;5092346;28;20123;-76
2022/07/06 10:07:56;;;;;;;5.40;3.00;;;;;;;20.23;65.31;98795.66;5091674;28;20082;-71
2022/07/06 10:10:23;;;;;;;;;;;;;;;20.48;63.93;98789.97;5091864;28;20590;-72
2022/07/06 10:12:50;;;;;;;3.95;2.60;;;;;;;20.52;62.94;98794.50;5091356;28;20368;-72
2022/07/06 10:15:18;;;;;;;2.20;2.00;;;;;;;20.49;63.57;98795.19;5091288;28;20028;-73
2022/07/06 10:17:47;;;;;;;3.83;2.20;;;;;;;20.59;62.05;98801.41;5091422;28;20052;-72
2022/07/06 10:20:13;;;;;;;;;;;;;;;20.73;62.44;98804.59;5091939;28;20028;-69
2022/07/06 10:22:39;;;;;;;6.90;3.90;;;;;;;20.92;62.12;98805.94;5091585;28;20049;-71
2022/07/06 10:25:05;;;;;;;3.90;2.92;;;;;;;20.98;61.83;98818.47;5091611;28;20024;-72
2022/07/06 10:27:32;;;;;;;3.60;2.83;;;;;;;20.97;61.59;98814.84;5092265;28;20078;-71
2022/07/06 10:29:58;;;;;;;3.63;3.33;;;;;;;20.99;60.65;98817.25;5089530;28;20015;-71
2022/07/06 10:32:25;;;;;;;4.57;3.72;;;;;;;20.87;60.10;98818.16;5092124;28;20507;-72
2022/07/06 10:34:50;;;;;;;6.95;4.10;;;;;;;20.71;59.62;98820.06;5091389;28;20020;-71
2022/07/06 10:37:27;;;;;;;5.72;4.60;;;;;;;20.68;61.17;98819.63;5091480;28;20051;-71
2022/07/06 10:42:40;;;;;;;4.22;3.83;;;;;;;20.91;61.08;98827.41;5089368;28;20583;-74
2022/07/06 10:45:07;;;;;;;5.57;5.07;;;;;;;20.89;59.87;98820.59;5091192;28;20028;-72
2022/07/06 10:47:32;;;;;;;4.80;4.30;;;;;;;20.85;59.56;98828.84;5090268;28;20282;-72
2022/07/06 10:50:03;;;;;;;5.40;4.78;;;;;;;20.79;60.37;98831.09;5073179;28;20031;-71
2022/07/06 10:52:57;;;;;;;5.30;4.80;;;;;;;20.85;60.36;98831.63;5089414;28;20024;-70
2022/07/06 10:55:36;;;;;;;6.05;5.35;;;;;;;20.84;60.05;98832.78;5090828;28;20028;-71
2022/07/06 10:58:03;;;;;;;8.38;6.88;;;;;;;20.79;60.13;98839.44;5090086;28;20095;-72
2022/07/06 11:00:49;;;;;;;7.35;6.65;;;;;;;20.79;59.47;98839.44;5089229;28;20020;-71
2022/07/06 11:03:30;;;;;;;6.25;5.32;;;;;;;20.78;60.17;98840.63;5089949;28;20040;-69
2022/07/06 11:06:00;;;;;;;6.25;5.68;;;;;;;20.82;59.55;98838.75;5091303;28;20024;-71
2022/07/06 11:08:42;;;;;;;5.78;5.18;;;;;;;20.91;60.13;98843.34;5090193;28;20095;-71
2022/07/06 11:11:19;;;;;;;4.40;3.97;;;;;;;21.07;59.71;98838.59;5091255;28;20120;-72
2022/07/06 11:14:05;;;;;;;5.55;4.97;;;;;;;21.17;60.16;98839.25;5089986;28;20036;-71
2022/07/06 11:16:34;;;;;;;6.60;5.90;;;;;;;21.30;59.25;98848.34;5085945;28;20020;-69
2022/07/06 11:19:07;;;;;;;5.65;4.78;;;;;;;21.24;60.15;98840.22;5090481;28;20031;-70
2022/07/06 11:22:09;;;;;;;5.53;4.95;;;;;;;21.31;58.97;98839.63;5089729;28;20032;-69
2022/07/06 11:24:38;;;;;;;4.35;4.05;;;;;;;21.49;59.10;98839.25;5090562;28;20028;-70
2022/07/06 11:27:06;;;;;;;5.65;4.93;;;;;;;21.80;59.07;98840.44;5090172;28;20495;-70